Time;durP1;ratioP1;P1;durP2;ratioP2;P2;SDS_P1;SDS_P2;PMS_P1;PMS_P2;Temp;Humidity;BMP_temperature;BMP_pressure;BME280_temperature;BME280_humidity;BME280_pressure;Samples;Min_cycle;Max_cycle;Signal;HPM_P1;HPM_P2
2023/04/29 00:00:40;;;;;;;6.93;6.10;;;14.50;99.90;;;;;;4954073;29;20499;-77
2023/04/29 00:03:08;;;;;;;7.33;6.60;;;14.50;99.90;;;;;;4955015;28;20483;-76
2023/04/29 00:05:36;;;;;;;6.83;6.23;;;14.50;99.90;;;;;;4954274;28;20476;-77
2023/04/29 00:08:03;;;;;;;5.70;5.23;;;14.50;99.90;;;;;;4954885;29;20472;-78
2023/04/29 00:10:30;;;;;;;13.33;7.33;;;14.60;99.90;;;;;;4954984;29;20822;-78
2023/04/29 00:12:57;;;;;;;8.60;7.70;;;14.50;99.90;;;;;;4954792;29;20467;-76
2023/04/29 00:15:24;;;;;;;8.27;7.30;;;14.60;99.90;;;;;;4954938;29;20480;-78
2023/04/29 00:17:51;;;;;;;7.80;7.10;;;14.60;99.90;;;;;;4954321;29;20476;-77
2023/04/29 00:20:19;;;;;;;8.00;7.30;;;14.50;99.90;;;;;;4954704;29;20841;-77
2023/04/29 00:22:48;;;;;;;10.53;9.40;;;14.60;99.90;;;;;;4944415;29;20483;-78
2023/04/29 00:25:15;;;;;;;6.93;6.23;;;14.60;99.90;;;;;;4954383;28;20805;-76
2023/04/29 00:27:43;;;;;;;7.77;7.07;;;14.60;99.90;;;;;;4954286;29;20475;-77
2023/04/29 00:30:12;;;;;;;7.43;6.83;;;14.60;99.90;;;;;;4953079;29;20531;-76
2023/04/29 00:32:43;;;;;;;6.57;5.93;;;14.60;99.90;;;;;;4952524;29;20490;-76
2023/04/29 00:35:11;;;;;;;8.83;7.93;;;14.60;99.90;;;;;;4954341;28;20548;-76
2023/04/29 00:37:38;;;;;;;8.73;8.03;;;14.70;99.90;;;;;;4955003;29;20472;-77
2023/04/29 00:40:08;;;;;;;9.63;8.07;;;14.60;99.90;;;;;;4953606;29;20526;-76
2023/04/29 00:42:38;;;;;;;7.67;6.97;;;14.60;99.90;;;;;;4954698;29;20644;-76
2023/04/29 00:45:06;;;;;;;8.57;7.67;;;14.60;99.90;;;;;;4952795;28;20467;-77
2023/04/29 00:47:34;;;;;;;8.37;7.60;;;14.60;99.90;;;;;;4954852;29;20471;-78
2023/04/29 00:50:01;;;;;;;8.17;7.27;;;14.50;99.90;;;;;;4953049;29;20475;-77
2023/04/29 00:52:31;;;;;;;7.17;6.57;;;14.60;99.90;;;;;;4952546;29;20479;-76
2023/04/29 00:54:59;;;;;;;7.63;7.00;;;14.60;99.90;;;;;;4953497;28;20510;-77
2023/04/29 00:57:29;;;;;;;7.90;7.23;;;14.50;99.90;;;;;;4935285;29;20528;-77
2023/04/29 00:59:56;;;;;;;7.40;6.80;;;14.60;99.90;;;;;;4935537;29;20477;-76
2023/04/29 01:02:24;;;;;;;7.63;7.03;;;14.60;99.90;;;;;;4934500;29;20473;-76
2023/04/29 01:04:51;;;;;;;10.30;6.80;;;14.60;99.90;;;;;;4934336;29;20477;-76
2023/04/29 01:07:32;;;;;;;7.70;7.00;;;14.60;99.90;;;;;;4954553;29;20464;-76
2023/04/29 01:10:04;;;;;;;9.77;8.73;;;14.60;99.90;;;;;;4952732;29;20472;-76
2023/04/29 01:12:43;;;;;;;8.53;7.63;;;14.50;99.90;;;;;;4946038;29;20483;-77
2023/04/29 01:15:22;;;;;;;10.00;9.10;;;14.40;99.90;;;;;;4955709;28;20467;-77
2023/04/29 01:17:55;;;;;;;9.73;8.80;;;14.40;99.90;;;;;;4956424;29;20479;-76
2023/04/29 01:20:24;;;;;;;11.47;10.47;;;14.40;99.90;;;;;;4958305;29;20472;-76
2023/04/29 01:22:51;;;;;;;13.47;11.17;;;14.40;99.90;;;;;;4957649;29;20560;-76
2023/04/29 01:25:20;;;;;;;10.97;9.87;;;14.30;99.90;;;;;;4958213;28;20486;-76
2023/04/29 01:27:56;;;;;;;9.23;8.33;;;14.30;99.90;;;;;;4958457;29;20472;-76
2023/04/29 01:30:31;;;;;;;11.13;10.23;;;14.30;99.90;;;;;;4948918;29;20954;-76
2023/04/29 01:33:11;;;;;;;9.13;8.30;;;14.20;99.90;;;;;;4956604;29;20973;-77
2023/04/29 01:36:06;;;;;;;10.63;9.27;;;14.20;99.90;;;;;;4957921;29;20475;-76
2023/04/29 01:38:40;;;;;;;10.37;9.57;;;14.20;99.90;;;;;;4958523;29;20522;-76
2023/04/29 01:41:16;;;;;;;11.70;10.60;;;14.20;99.90;;;;;;4958649;29;20483;-77
2023/04/29 01:43:48;;;;;;;10.57;9.50;;;14.10;99.90;;;;;;4956882;29;20953;-77
2023/04/29 01:46:18;;;;;;;10.23;9.23;;;14.10;99.90;;;;;;4958549;29;20780;-76
2023/04/29 01:48:47;;;;;;;16.17;14.50;;;14.10;99.90;;;;;;4958008;29;20526;-76
2023/04/29 01:51:15;;;;;;;10.80;9.70;;;14.10;99.90;;;;;;4959010;28;20467;-76
2023/04/29 01:53:43;;;;;;;14.17;11.10;;;14.00;99.90;;;;;;4948249;29;20530;-77
2023/04/29 01:56:14;;;;;;;12.13;9.68;;;14.00;99.90;;;;;;4948537;29;20484;-76
2023/04/29 01:58:41;;;;;;;10.57;9.40;;;14.00;99.90;;;;;;4957764;29;20228;-77
2023/04/29 02:01:09;;;;;;;11.23;10.10;;;13.90;99.90;;;;;;4956951;29;20531;-76
2023/04/29 02:03:36;;;;;;;10.63;9.53;;;13.90;99.90;;;;;;4955107;29;20551;-76
2023/04/29 02:06:05;;;;;;;10.20;9.03;;;13.90;99.90;;;;;;4955939;28;20472;-76
2023/04/29 02:08:32;;;;;;;11.73;10.63;;;13.90;99.90;;;;;;4950424;29;20460;-77
2023/04/29 02:11:00;;;;;;;11.70;10.60;;;13.90;99.90;;;;;;4939396;29;20735;-76
2023/04/29 02:13:36;;;;;;;10.00;9.20;;;13.90;99.90;;;;;;4948930;29;20471;-77
2023/04/29 02:16:09;;;;;;;12.15;11.05;;;13.80;99.90;;;;;;4959171;29;20482;-76
2023/04/29 02:18:36;;;;;;;14.65;11.85;;;13.80;99.90;;;;;;4961250;29;20319;-76
2023/04/29 02:21:04;;;;;;;12.87;11.50;;;13.80;99.90;;;;;;4959477;29;20224;-78
2023/04/29 02:23:31;;;;;;;12.53;11.33;;;13.80;99.90;;;;;;4956108;29;20463;-77
2023/04/29 02:25:58;;;;;;;11.25;10.27;;;13.80;99.90;;;;;;4956899;28;20879;-77
2023/04/29 02:28:25;;;;;;;10.40;9.47;;;13.80;99.90;;;;;;4960947;29;20255;-76
2023/04/29 02:30:54;;;;;;;10.15;9.25;;;13.80;99.90;;;;;;4960906;29;20529;-77
2023/04/29 02:33:21;;;;;;;11.40;10.50;;;13.80;99.90;;;;;;4960288;29;20693;-77
2023/04/29 02:35:48;;;;;;;11.80;10.80;;;13.80;99.90;;;;;;4966905;28;20507;-77
2023/04/29 02:38:15;;;;;;;11.53;10.43;;;13.80;99.90;;;;;;4969458;29;20470;-76
2023/04/29 02:40:43;;;;;;;11.07;10.03;;;13.80;99.90;;;;;;4967889;29;20531;-77
2023/04/29 02:43:10;;;;;;;10.50;9.40;;;13.80;99.90;;;;;;4966921;29;20475;-76
2023/04/29 02:45:38;;;;;;;14.63;11.63;;;13.80;99.90;;;;;;4968246;28;20518;-76
2023/04/29 02:50:55;;;;;;;11.43;10.53;;;13.70;99.90;;;;;;4949121;29;20473;-78
2023/04/29 02:53:22;;;;;;;12.20;11.20;;;13.70;99.90;;;;;;4949237;29;20473;-76
2023/04/29 02:55:49;;;;;;;13.30;12.00;;;13.70;99.90;;;;;;4950414;29;20480;-77
2023/04/29 02:58:16;;;;;;;13.33;12.13;;;13.80;99.90;;;;;;4945798;29;20292;-78
2023/04/29 03:00:43;;;;;;;16.57;14.73;;;13.70;99.90;;;;;;4947785;29;20481;-77
2023/04/29 03:03:11;;;;;;;15.40;13.97;;;13.70;99.90;;;;;;4946878;29;20539;-78
2023/04/29 03:05:38;;;;;;;15.60;14.10;;;13.70;99.90;;;;;;4942560;29;20477;-75
2023/04/29 03:08:06;;;;;;;14.40;13.00;;;13.70;99.90;;;;;;4944197;29;21059;-77
2023/04/29 03:10:33;;;;;;;16.20;14.50;;;13.70;99.90;;;;;;4941895;29;20476;-76
2023/04/29 03:13:03;;;;;;;16.07;14.47;;;13.70;99.90;;;;;;4947856;29;20670;-76
2023/04/29 03:15:30;;;;;;;15.10;13.70;;;13.60;99.90;;;;;;4942233;29;20483;-75
2023/04/29 03:18:00;;;;;;;15.27;13.87;;;13.60;99.90;;;;;;4944604;29;20544;-75
2023/04/29 03:20:28;;;;;;;16.60;15.00;;;13.60;99.90;;;;;;4947527;29;20472;-77
2023/04/29 03:22:56;;;;;;;15.63;14.23;;;13.60;99.90;;;;;;4948302;29;20480;-75
2023/04/29 03:25:23;;;;;;;17.40;15.77;;;13.60;99.90;;;;;;4953607;29;20566;-76
2023/04/29 03:27:50;;;;;;;14.53;13.33;;;13.60;99.90;;;;;;4949539;29;20473;-77
2023/04/29 03:30:17;;;;;;;17.80;16.20;;;13.60;99.90;;;;;;4947555;29;20468;-77
2023/04/29 03:32:44;;;;;;;16.75;14.95;;;13.60;99.90;;;;;;4946633;29;20233;-76
2023/04/29 03:35:11;;;;;;;20.77;17.92;;;13.60;99.90;;;;;;4947592;29;20243;-77
2023/04/29 03:37:43;;;;;;;18.63;16.73;;;13.60;99.90;;;;;;4944364;29;20225;-77
2023/04/29 03:40:11;;;;;;;18.60;14.90;;;13.60;99.90;;;;;;4940327;29;20983;-78
2023/04/29 03:42:38;;;;;;;16.93;15.53;;;13.60;99.90;;;;;;4940510;29;20477;-76
2023/04/29 03:45:06;;;;;;;20.42;16.45;;;13.70;99.90;;;;;;4939382;29;20935;-77
2023/04/29 03:47:33;;;;;;;20.47;18.37;;;13.70;99.90;;;;;;4938309;29;20225;-78
2023/04/29 03:50:00;;;;;;;16.23;14.63;;;13.60;99.90;;;;;;4937786;29;20975;-77
2023/04/29 03:52:27;;;;;;;18.15;16.45;;;13.70;99.90;;;;;;4938732;29;20469;-77
2023/04/29 03:54:56;;;;;;;14.50;13.10;;;13.70;99.90;;;;;;4928319;29;20576;-78
2023/04/29 03:57:23;;;;;;;17.10;15.60;;;13.70;99.90;;;;;;4939711;29;20497;-77
2023/04/29 03:59:50;;;;;;;19.90;17.70;;;13.70;99.90;;;;;;4937960;29;20567;-77
2023/04/29 04:02:18;;;;;;;19.33;17.52;;;13.70;99.90;;;;;;4937226;29;20512;-76
2023/04/29 04:04:45;;;;;;;20.00;18.10;;;13.70;99.90;;;;;;4937083;29;20232;-76
2023/04/29 04:07:12;;;;;;;19.30;17.50;;;13.70;99.90;;;;;;4936676;29;20232;-75
2023/04/29 04:09:39;;;;;;;18.10;16.43;;;13.70;99.90;;;;;;4936059;29;20461;-76
2023/04/29 04:12:08;;;;;;;21.10;19.07;;;13.70;99.90;;;;;;4937778;29;20975;-76
2023/04/29 04:14:35;;;;;;;20.13;18.20;;;13.80;99.90;;;;;;4936084;29;20587;-75
2023/04/29 04:17:02;;;;;;;20.73;18.73;;;13.80;99.90;;;;;;4936974;29;20566;-76
2023/04/29 04:19:31;;;;;;;21.83;19.63;;;13.80;99.90;;;;;;4936838;29;20478;-76
2023/04/29 04:21:58;;;;;;;21.17;18.80;;;13.80;99.90;;;;;;4936538;29;20542;-76
2023/04/29 04:24:25;;;;;;;21.00;19.13;;;13.80;99.90;;;;;;4936160;29;21022;-77
2023/04/29 04:26:52;;;;;;;20.83;18.73;;;13.80;99.90;;;;;;4936064;29;20772;-77
2023/04/29 04:32:05;;;;;;;25.00;18.87;;;13.90;99.90;;;;;;4935913;29;20492;-76
2023/04/29 04:34:32;;;;;;;23.73;20.50;;;13.90;99.90;;;;;;4935796;29;20513;-76
2023/04/29 04:37:00;;;;;;;22.90;20.63;;;13.90;99.90;;;;;;4936286;29;20465;-77
2023/04/29 04:39:27;;;;;;;19.23;17.30;;;13.90;99.90;;;;;;4935200;29;20811;-77
2023/04/29 04:41:54;;;;;;;18.38;16.60;;;13.90;99.90;;;;;;4936675;29;20468;-77
2023/04/29 04:44:23;;;;;;;22.27;20.07;;;13.90;99.90;;;;;;4934891;29;20229;-77
2023/04/29 04:46:51;;;;;;;21.27;19.17;;;14.00;99.90;;;;;;4936152;29;20543;-76
2023/04/29 04:49:18;;;;;;;20.73;18.63;;;14.00;99.90;;;;;;4938189;29;20481;-77
2023/04/29 04:51:45;;;;;;;19.20;17.33;;;14.00;99.90;;;;;;4939956;29;20604;-76
2023/04/29 04:54:12;;;;;;;19.57;17.57;;;14.00;99.90;;;;;;4939673;29;20475;-77
2023/04/29 04:56:39;;;;;;;20.37;18.30;;;14.00;99.90;;;;;;4938647;29;20496;-76
2023/04/29 04:59:06;;;;;;;21.70;19.13;;;14.00;99.90;;;;;;4939438;29;20551;-76
2023/04/29 05:01:35;;;;;;;26.07;22.23;;;14.10;99.90;;;;;;4938728;29;20464;-76
2023/04/29 05:04:02;;;;;;;21.27;19.27;;;14.10;99.90;;;;;;4939874;29;20476;-77
2023/04/29 05:06:29;;;;;;;24.40;21.77;;;14.10;99.90;;;;;;4938960;29;20555;-77
2023/04/29 05:08:57;;;;;;;22.60;20.30;;;14.10;99.90;;;;;;4939113;29;20869;-76
2023/04/29 05:11:24;;;;;;;22.57;20.27;;;14.10;99.90;;;;;;4938166;29;20887;-77
2023/04/29 05:13:51;;;;;;;21.57;19.37;;;14.10;99.90;;;;;;4939126;29;20962;-76
2023/04/29 05:16:18;;;;;;;25.70;23.00;;;14.10;99.90;;;;;;4939318;29;20473;-76
2023/04/29 05:18:46;;;;;;;24.47;21.77;;;14.10;99.90;;;;;;4938977;29;20453;-76
2023/04/29 05:21:13;;;;;;;25.83;22.97;;;14.20;99.90;;;;;;4939577;29;20468;-77
2023/04/29 05:23:42;;;;;;;25.17;22.60;;;14.10;99.90;;;;;;4938339;29;20483;-77
2023/04/29 05:26:09;;;;;;;24.70;22.10;;;14.20;99.90;;;;;;4939274;29;20556;-76
2023/04/29 05:28:36;;;;;;;23.40;20.90;;;14.20;99.90;;;;;;4938634;29;20472;-76
2023/04/29 05:31:03;;;;;;;22.55;20.40;;;14.20;99.90;;;;;;4939051;29;20479;-76
2023/04/29 05:33:30;;;;;;;27.70;22.33;;;14.20;99.90;;;;;;4938066;29;20236;-76
2023/04/29 05:36:12;;;;;;;21.70;19.40;;;14.20;99.90;;;;;;4938738;29;20480;-77
2023/04/29 05:38:39;;;;;;;21.92;19.75;;;14.20;99.90;;;;;;4937752;29;20476;-77
2023/04/29 05:41:06;;;;;;;24.80;21.20;;;14.20;99.90;;;;;;4938812;29;20605;-76
2023/04/29 05:43:33;;;;;;;22.70;20.30;;;14.20;99.90;;;;;;4938382;29;20661;-75
2023/04/29 05:46:00;;;;;;;20.80;18.70;;;14.20;99.90;;;;;;4938385;29;21027;-76
2023/04/29 05:48:28;;;;;;;17.03;15.37;;;14.20;99.90;;;;;;4938213;29;20780;-77
2023/04/29 05:50:55;;;;;;;24.33;21.67;;;14.20;99.90;;;;;;4938429;29;20503;-77
2023/04/29 05:53:24;;;;;;;24.33;21.10;;;14.20;99.90;;;;;;4936987;29;20535;-76
2023/04/29 05:55:51;;;;;;;19.77;17.67;;;14.20;99.90;;;;;;4937298;29;20783;-76
2023/04/29 05:58:18;;;;;;;21.47;19.03;;;14.20;99.90;;;;;;4937931;29;20556;-76
2023/04/29 06:00:48;;;;;;;21.43;18.90;;;14.20;99.90;;;;;;4937453;29;20476;-76
2023/04/29 06:03:22;;;;;;;23.57;21.17;;;14.30;99.90;;;;;;4937681;29;20829;-76
2023/04/29 06:05:52;;;;;;;21.30;19.10;;;14.30;99.90;;;;;;4937904;29;20472;-76
2023/04/29 06:08:19;;;;;;;20.17;18.07;;;14.30;99.90;;;;;;4938166;29;20555;-75
2023/04/29 06:10:50;;;;;;;24.33;21.43;;;14.30;99.90;;;;;;4936852;29;20508;-77
2023/04/29 06:13:17;;;;;;;27.17;23.42;;;14.30;99.90;;;;;;4939614;29;20477;-76
2023/04/29 06:15:44;;;;;;;26.40;22.33;;;14.30;99.90;;;;;;4938950;29;20240;-78
2023/04/29 06:18:12;;;;;;;20.57;18.47;;;14.30;99.90;;;;;;4937330;29;20477;-77
2023/04/29 06:20:39;;;;;;;20.60;17.87;;;14.30;99.90;;;;;;4939895;29;20472;-79
2023/04/29 06:23:10;;;;;;;21.53;19.23;;;14.30;99.90;;;;;;4940516;29;20468;-78
2023/04/29 06:25:37;;;;;;;20.83;18.63;;;14.30;99.90;;;;;;4937580;29;20465;-77
2023/04/29 06:28:07;;;;;;;22.37;19.30;;;14.40;99.90;;;;;;4938502;29;20535;-77
2023/04/29 06:30:34;;;;;;;20.20;18.00;;;14.40;99.90;;;;;;4936704;29;20481;-78
2023/04/29 06:33:01;;;;;;;18.90;16.67;;;14.40;99.90;;;;;;4936379;29;20488;-77
2023/04/29 06:35:28;;;;;;;19.63;17.67;;;14.40;99.90;;;;;;4937969;29;20784;-77
2023/04/29 06:37:56;;;;;;;18.13;16.13;;;14.40;99.90;;;;;;4935945;29;20520;-78
2023/04/29 06:40:23;;;;;;;16.93;15.13;;;14.40;99.90;;;;;;4937427;29;20471;-75
2023/04/29 06:42:51;;;;;;;18.93;16.40;;;14.40;99.90;;;;;;4936839;29;20476;-78
2023/04/29 06:48:05;;;;;;;17.13;15.37;;;14.50;99.90;;;;;;4936679;29;20523;-77
2023/04/29 06:50:32;;;;;;;19.00;17.03;;;14.50;99.90;;;;;;4937376;29;20540;-76
2023/04/29 06:52:59;;;;;;;19.57;17.57;;;14.50;99.90;;;;;;4937020;29;20539;-76
2023/04/29 06:55:27;;;;;;;22.33;19.63;;;14.50;99.90;;;;;;4936895;29;20480;-76
2023/04/29 06:57:57;;;;;;;23.50;20.70;;;14.50;99.90;;;;;;4936739;29;20535;-76
2023/04/29 07:00:26;;;;;;;22.47;20.17;;;14.50;99.90;;;;;;4936842;29;20895;-76
2023/04/29 07:02:53;;;;;;;23.10;19.73;;;14.50;99.90;;;;;;4936011;29;20532;-76
2023/04/29 07:05:20;;;;;;;23.50;20.47;;;14.50;99.90;;;;;;4936948;29;20493;-76
2023/04/29 07:07:47;;;;;;;22.77;20.27;;;14.50;99.90;;;;;;4936026;29;20491;-77
2023/04/29 07:10:18;;;;;;;20.20;18.07;;;14.40;99.90;;;;;;4935645;29;20472;-77
2023/04/29 07:12:45;;;;;;;23.13;18.37;;;14.40;99.90;;;;;;4936079;29;20472;-77
2023/04/29 07:15:27;;;;;;;20.23;18.10;;;14.40;99.90;;;;;;4936954;29;20802;-77
2023/04/29 07:17:55;;;;;;;19.67;16.87;;;14.40;99.90;;;;;;4936495;29;20491;-76
2023/04/29 07:20:23;;;;;;;20.63;16.60;;;14.40;99.90;;;;;;4927316;29;20946;-76
2023/04/29 07:22:50;;;;;;;19.97;17.93;;;14.40;99.90;;;;;;4935873;29;20483;-76
2023/04/29 07:25:18;;;;;;;17.83;15.73;;;14.30;99.90;;;;;;4935555;29;20473;-77
2023/04/29 07:27:46;;;;;;;22.73;17.80;;;14.30;99.90;;;;;;4937129;29;20551;-76
2023/04/29 07:30:13;;;;;;;25.10;19.87;;;14.30;99.90;;;;;;4936811;29;20472;-76
2023/04/29 07:32:46;;;;;;;18.57;16.20;;;14.30;99.90;;;;;;4936270;29;20480;-77
2023/04/29 07:35:15;;;;;;;24.80;19.50;;;14.30;99.90;;;;;;4935479;29;20465;-77
2023/04/29 07:37:42;;;;;;;21.57;19.40;;;14.30;99.90;;;;;;4936311;29;20496;-76
2023/04/29 07:40:12;;;;;;;21.63;19.17;;;14.20;99.90;;;;;;4936073;29;22050;-77
2023/04/29 07:42:39;;;;;;;20.37;17.40;;;14.20;99.90;;;;;;4936623;29;20480;-77
2023/04/29 07:45:10;;;;;;;20.80;18.10;;;14.20;99.90;;;;;;4935541;29;20780;-76
2023/04/29 07:47:44;;;;;;;21.70;19.40;;;14.20;99.90;;;;;;4926360;29;20484;-76
2023/04/29 07:50:11;;;;;;;31.03;24.77;;;14.20;99.90;;;;;;4935321;29;20469;-76
2023/04/29 07:52:40;;;;;;;23.50;20.30;;;14.20;99.90;;;;;;4936160;29;20468;-76
2023/04/29 07:55:08;;;;;;;26.90;21.30;;;14.20;99.90;;;;;;4915560;29;20511;-77
2023/04/29 07:57:35;;;;;;;16.37;14.73;;;14.20;99.90;;;;;;4924724;29;20472;-77
2023/04/29 08:00:08;;;;;;;15.90;14.50;;;14.20;99.90;;;;;;4925730;29;20535;-77
2023/04/29 08:02:38;;;;;;;15.52;14.02;;;14.20;99.90;;;;;;4934923;29;20480;-77
2023/04/29 08:05:06;;;;;;;16.87;14.77;;;14.20;99.90;;;;;;4934063;29;20236;-75
2023/04/29 08:07:35;;;;;;;16.53;14.80;;;14.10;99.90;;;;;;4935234;29;20481;-76
2023/04/29 08:10:04;;;;;;;14.40;13.00;;;14.10;99.90;;;;;;4935766;29;20476;-78
2023/04/29 08:12:33;;;;;;;15.83;14.30;;;14.10;99.90;;;;;;4935457;29;20480;-75
2023/04/29 08:15:00;;;;;;;15.23;13.73;;;14.10;99.90;;;;;;4935986;29;20481;-77
2023/04/29 08:17:28;;;;;;;14.35;12.95;;;14.10;99.90;;;;;;4934984;29;20564;-77
2023/04/29 08:19:55;;;;;;;12.17;11.07;;;14.10;99.90;;;;;;4935729;29;20649;-76
2023/04/29 08:22:23;;;;;;;12.07;10.98;;;14.10;99.90;;;;;;4934532;29;20971;-78
2023/04/29 08:24:56;;;;;;;15.70;14.20;;;14.00;99.90;;;;;;4927254;29;20232;-77
2023/04/29 08:27:28;;;;;;;13.27;12.13;;;14.00;99.90;;;;;;4934646;29;20469;-75
2023/04/29 08:29:56;;;;;;;14.40;13.07;;;14.00;99.90;;;;;;4935489;29;20476;-77
2023/04/29 08:34:58;;;;;;;14.00;12.80;;;13.90;99.90;;;;;;4934819;29;20472;-78
2023/04/29 08:37:25;;;;;;;14.93;12.93;;;13.90;99.90;;;;;;4935901;29;20475;-76
2023/04/29 08:39:52;;;;;;;15.35;13.95;;;13.90;99.90;;;;;;4942090;29;20983;-77
2023/04/29 08:42:28;;;;;;;14.13;12.55;;;13.90;99.90;;;;;;4938981;29;20264;-76
2023/04/29 08:45:01;;;;;;;13.23;12.13;;;13.90;99.90;;;;;;4935730;29;20617;-76
2023/04/29 08:47:36;;;;;;;14.80;13.57;;;13.90;99.90;;;;;;4936143;29;20552;-77
2023/04/29 08:50:05;;;;;;;13.33;12.03;;;13.80;99.90;;;;;;4936145;29;20231;-76
2023/04/29 08:52:32;;;;;;;14.20;12.67;;;13.80;99.90;;;;;;4935938;29;20861;-77
2023/04/29 08:55:01;;;;;;;15.93;14.40;;;13.80;99.90;;;;;;4934980;29;21049;-76
2023/04/29 08:57:30;;;;;;;16.10;14.60;;;13.80;99.90;;;;;;4935376;29;20479;-76
2023/04/29 09:00:01;;;;;;;16.83;15.13;;;13.80;99.90;;;;;;4923899;29;20229;-78
2023/04/29 09:02:29;;;;;;;18.90;15.70;;;13.80;99.90;;;;;;4935379;29;20239;-78
2023/04/29 09:05:10;;;;;;;20.13;18.02;;;13.80;99.90;;;;;;4934817;29;20878;-77
2023/04/29 09:07:38;;;;;;;18.60;16.67;;;13.80;99.90;;;;;;4935506;29;20638;-77
2023/04/29 09:10:06;;;;;;;18.73;16.73;;;13.80;99.90;;;;;;4934710;29;20228;-78
2023/04/29 09:12:32;;;;;;;19.20;17.20;;;13.80;99.90;;;;;;4934005;29;20477;-77
2023/04/29 09:15:01;;;;;;;17.93;16.13;;;13.80;99.90;;;;;;4934788;29;20484;-77
2023/04/29 09:17:43;;;;;;;18.60;16.70;;;13.80;99.90;;;;;;4925759;29;20621;-77
2023/04/29 09:20:27;;;;;;;19.33;17.27;;;13.70;99.90;;;;;;4932969;29;20791;-77
2023/04/29 09:22:56;;;;;;;18.10;16.00;;;13.70;99.90;;;;;;4934560;29;20224;-77
2023/04/29 09:25:23;;;;;;;19.23;17.23;;;13.70;99.90;;;;;;4935054;29;20465;-78
2023/04/29 09:27:51;;;;;;;19.47;17.50;;;13.70;99.90;;;;;;4934665;29;20248;-78
2023/04/29 09:30:20;;;;;;;21.87;19.33;;;13.70;99.90;;;;;;4935024;29;20523;-76
2023/04/29 09:33:04;;;;;;;22.08;19.73;;;13.70;99.90;;;;;;4934810;29;20476;-77
2023/04/29 09:35:37;;;;;;;23.83;20.23;;;13.70;99.90;;;;;;4937496;29;20232;-77
2023/04/29 09:38:12;;;;;;;23.55;21.05;;;13.70;99.90;;;;;;4939355;29;20224;-78
2023/04/29 09:40:40;;;;;;;24.80;21.38;;;13.70;99.90;;;;;;4928767;29;20232;-76
2023/04/29 09:43:14;;;;;;;28.07;23.70;;;13.70;99.90;;;;;;4938514;29;20229;-76
2023/04/29 09:45:44;;;;;;;27.67;23.80;;;13.70;99.90;;;;;;4936657;29;20481;-78
2023/04/29 09:48:13;;;;;;;28.98;24.83;;;13.70;99.90;;;;;;4938129;29;20551;-75
2023/04/29 09:50:45;;;;;;;30.57;25.53;;;13.70;99.90;;;;;;4951361;28;20609;-76
2023/04/29 09:53:30;;;;;;;32.15;25.88;;;13.70;99.90;;;;;;4941702;29;20486;-77
2023/04/29 09:56:01;;;;;;;36.50;26.75;;;13.70;99.90;;;;;;4956897;29;20260;-75
2023/04/29 09:58:37;;;;;;;29.98;26.23;;;13.60;99.90;;;;;;4957472;29;20254;-76
2023/04/29 10:01:07;;;;;;;38.75;31.25;;;13.60;99.90;;;;;;4955981;29;20223;-77
2023/04/29 10:03:37;;;;;;;33.70;30.13;;;13.60;99.90;;;;;;4957377;29;20252;-76
2023/04/29 10:06:05;;;;;;;35.40;30.47;;;13.70;99.90;;;;;;4955849;28;20810;-77
2023/04/29 10:08:33;;;;;;;40.42;32.83;;;13.70;99.90;;;;;;4957190;29;20538;-76
2023/04/29 10:11:02;;;;;;;31.85;27.65;;;13.60;99.90;;;;;;4955973;29;20307;-77
2023/04/29 10:13:30;;;;;;;35.28;29.65;;;13.60;99.90;;;;;;4955384;29;20234;-77
2023/04/29 10:16:03;;;;;;;39.47;32.97;;;13.60;99.90;;;;;;4956132;29;20291;-77
2023/04/29 10:18:40;;;;;;;33.50;29.45;;;13.70;99.90;;;;;;4956822;29;20357;-77
2023/04/29 10:21:08;;;;;;;38.92;34.35;;;13.70;99.90;;;;;;4956938;29;20241;-77
2023/04/29 10:23:43;;;;;;;33.90;29.02;;;13.70;99.90;;;;;;4956697;29;20228;-78
2023/04/29 10:26:16;;;;;;;35.20;31.30;;;13.70;99.90;;;;;;4956689;28;20224;-76
2023/04/29 10:28:46;;;;;;;34.93;29.93;;;13.70;99.90;;;;;;4956682;29;20471;-76
2023/04/29 10:31:15;;;;;;;43.13;32.75;;;13.70;99.90;;;;;;4955213;29;20475;-76
2023/04/29 10:33:46;;;;;;;33.10;29.33;;;13.70;99.90;;;;;;4956133;29;20566;-76
2023/04/29 10:36:13;;;;;;;39.83;31.83;;;13.70;99.90;;;;;;4955870;28;20463;-75
2023/04/29 10:38:45;;;;;;;38.37;33.87;;;13.70;99.90;;;;;;4956252;29;20224;-77
2023/04/29 10:41:19;;;;;;;41.20;32.65;;;13.70;99.90;;;;;;4955793;29;20476;-75
2023/04/29 10:43:46;;;;;;;40.53;33.13;;;13.70;99.90;;;;;;4956418;29;20227;-77
2023/04/29 10:46:21;;;;;;;31.17;27.83;;;13.70;99.90;;;;;;4954825;28;20471;-75
2023/04/29 10:48:51;;;;;;;29.30;26.30;;;13.80;99.90;;;;;;4955768;29;20650;-77
2023/04/29 10:51:32;;;;;;;32.40;26.80;;;13.80;99.90;;;;;;4930142;29;20469;-77
2023/04/29 10:54:01;;;;;;;29.50;26.50;;;13.80;99.90;;;;;;4937875;29;20232;-75
2023/04/29 10:56:50;;;;;;;32.27;28.77;;;13.80;99.90;;;;;;4940129;29;20501;-76
2023/04/29 10:59:44;;;;;;;33.40;27.47;;;13.90;99.90;;;;;;4937191;29;20923;-77
2023/04/29 11:02:11;;;;;;;26.87;23.83;;;13.90;99.90;;;;;;4937034;29;20476;-77
2023/04/29 11:05:08;;;;;;;27.17;24.57;;;14.00;99.90;;;;;;4937031;29;20795;-76
2023/04/29 11:07:36;;;;;;;27.23;24.43;;;14.00;99.90;;;;;;4937779;29;20479;-77
2023/04/29 11:10:03;;;;;;;25.77;23.07;;;14.00;99.90;;;;;;4935747;29;20504;-77
2023/04/29 11:12:39;;;;;;;24.37;22.07;;;14.10;99.90;;;;;;4937036;29;20468;-77
2023/04/29 11:15:10;;;;;;;28.37;25.63;;;14.10;99.90;;;;;;4936304;29;20480;-77
2023/04/29 11:17:38;;;;;;;24.87;22.37;;;14.10;99.90;;;;;;4935998;29;20473;-77
2023/04/29 11:20:10;;;;;;;25.77;21.67;;;14.20;99.90;;;;;;4935638;29;20831;-77
2023/04/29 11:22:38;;;;;;;22.90;20.67;;;14.20;99.90;;;;;;4935061;29;20469;-76
2023/04/29 11:25:07;;;;;;;24.47;21.97;;;14.30;99.90;;;;;;4951398;29;20786;-78
2023/04/29 11:27:36;;;;;;;25.50;23.03;;;14.30;99.90;;;;;;4952137;28;20467;-77
2023/04/29 11:30:05;;;;;;;26.87;24.20;;;14.40;99.90;;;;;;4955966;28;20798;-78
2023/04/29 11:35:18;;;;;;;23.53;21.03;;;14.60;99.90;;;;;;4954335;28;20549;-78
2023/04/29 11:37:47;;;;;;;19.20;17.00;;;14.70;99.90;;;;;;4975044;28;20486;-76
2023/04/29 11:42:55;;;;;;;23.70;21.43;;;14.90;99.90;;;;;;4968775;28;20471;-78
2023/04/29 11:45:22;;;;;;;21.33;19.10;;;15.00;99.90;;;;;;4955141;28;20503;-77
2023/04/29 11:47:50;;;;;;;21.07;18.97;;;15.00;99.90;;;;;;4955486;29;20539;-77
2023/04/29 11:50:19;;;;;;;21.00;19.00;;;15.00;99.90;;;;;;4944333;29;21003;-77
2023/04/29 11:52:47;;;;;;;19.73;17.70;;;15.10;99.90;;;;;;4955490;29;20817;-76
2023/04/29 11:55:15;;;;;;;23.00;18.97;;;15.10;99.90;;;;;;4954531;28;20475;-77
2023/04/29 11:57:42;;;;;;;17.77;15.60;;;15.10;99.90;;;;;;4955471;28;20816;-78
2023/04/29 12:00:12;;;;;;;17.57;15.67;;;15.20;99.90;;;;;;4956087;28;20498;-78
2023/04/29 12:02:44;;;;;;;18.83;17.03;;;15.30;99.90;;;;;;4964708;28;20486;-78
2023/04/29 12:05:14;;;;;;;15.10;13.70;;;15.30;99.90;;;;;;4973351;28;20502;-77
2023/04/29 12:07:43;;;;;;;18.30;16.70;;;15.30;99.90;;;;;;4973575;28;20493;-77
2023/04/29 12:10:18;;;;;;;18.10;15.43;;;15.30;99.90;;;;;;4961123;28;21024;-78
2023/04/29 12:12:45;;;;;;;18.37;16.47;;;15.30;99.90;;;;;;4972278;28;20877;-78
2023/04/29 12:15:13;;;;;;;18.40;16.50;;;15.30;99.90;;;;;;4972669;28;20483;-75
2023/04/29 12:17:41;;;;;;;21.70;19.73;;;15.30;99.90;;;;;;4973982;28;21007;-74
2023/04/29 12:20:10;;;;;;;17.17;15.63;;;15.30;99.90;;;;;;4973838;28;20539;-74
2023/04/29 12:22:37;;;;;;;17.60;15.90;;;15.20;99.90;;;;;;4975261;28;20995;-75
2023/04/29 12:25:08;;;;;;;18.97;17.07;;;15.20;99.90;;;;;;4952109;28;20472;-77
2023/04/29 12:27:36;;;;;;;15.87;14.57;;;15.20;99.90;;;;;;4935822;29;20551;-77
2023/04/29 12:30:07;;;;;;;17.17;15.43;;;15.20;99.90;;;;;;4935847;29;20473;-76
2023/04/29 12:32:35;;;;;;;17.10;15.40;;;15.20;99.90;;;;;;4933857;29;20815;-76
2023/04/29 12:37:50;;;;;;;14.43;13.00;;;15.30;99.90;;;;;;4935919;29;20472;-76
2023/04/29 12:40:20;;;;;;;17.83;16.10;;;15.40;99.90;;;;;;4934610;29;20488;-76
2023/04/29 12:42:47;;;;;;;16.13;14.53;;;15.40;99.90;;;;;;4934532;29;20548;-75
2023/04/29 12:45:28;;;;;;;14.80;13.30;;;15.40;99.90;;;;;;4935235;29;20504;-76
2023/04/29 12:47:57;;;;;;;13.63;12.23;;;15.50;99.90;;;;;;4949615;29;20469;-76
2023/04/29 12:50:31;;;;;;;14.60;13.10;;;15.50;99.90;;;;;;4944667;29;20575;-76
2023/04/29 12:52:58;;;;;;;13.03;11.67;;;15.60;99.90;;;;;;4953477;28;20462;-76
2023/04/29 12:55:28;;;;;;;11.53;10.40;;;15.60;99.90;;;;;;4960453;28;20514;-77
2023/04/29 12:57:58;;;;;;;9.73;8.83;;;15.70;99.90;;;;;;4955475;29;20463;-77
2023/04/29 13:00:25;;;;;;;10.67;8.70;;;15.70;99.90;;;;;;4964177;28;20475;-76